AirNav   Everest Fuels
 
 1258 users online  

03WT Lopez Medical Clinic Heliport
Lopez Island, Washington, USA

GOING TO LOPEZ ISLAND?


FAA INFORMATION EFFECTIVE 25 MARCH 2021

Location

FAA Identifier: 03WT
Lat/Long: 48-31-29.7600N 122-54-44.6000W
48-31.496000N 122-54.743333W
48.5249333,-122.9123889
(estimated)
Elevation: 38 ft. / 12 m (estimated)
Variation: 16E (2015)
From city: 10 miles SW of LOPEZ ISLAND, WA
Time zone: UTC -7 (UTC -8 during Standard Time)
Zip code: 98222

Heliport Operations

Heliport use: Private use. Permission required prior to landing
Activation date: 07/2012
Control tower: no
ARTCC: SEATTLE CENTER
FSS: SEATTLE FLIGHT SERVICE STATION
NOTAMs facility: FDC (NOTAM-D service not available)
Attendance: CONTINUOUS
Wind indicator: yes
Segmented circle: no
Lights: SS-SR

Heliport Communications

WX ASOS at FHR (4 nm W): 135.675 (360-378-8491)
WX AWOS-3 at ORS (11 nm N): 135.425 (360-376-6045)
WX AWOS-3 at OKH (19 nm SE): 132.775 (360-675-8431)
WX AWOS-3 at BVS (20 nm E): 121.125 (360-757-7767)

Nearby radio navigation aids

VOR radial/distance  VOR name  Freq  Var
CVVr317/18.4PENN COVE VOR/DME117.2019E
YYJr101/25.7VICTORIA VOR/DME113.7017E
HUHr188/28.5WHATCOM VORTAC113.0020E
YVRr147/34.4VANCOUVER VOR/DME115.9017E

 
NDB name  Hdg/Dist  Freq  Var  ID
FRIDAY HARBOR063/4.528417EFHR ..-. .... .-.
SKAGIT/BAY VIEW264/19.924016EBVS -... ...- ...
EDIZ HOOK023/30.333817ENOW -. --- .--

Heliport Services

Runway Information

Helipad H1

Dimensions: 50 x 50 ft. / 15 x 15 m
Surface: concrete, in fair condition
Runway edge lights: PERI
Latitude: 48-31.496000N
Longitude: 122-54.743333W
Elevation: 38.0 ft.
Traffic pattern: leftleft
Markings: none, in fair condition

Heliport Ownership and Management from official FAA records

Ownership: Privately-owned
Owner: LOPEZ ISLAND MEDICAL CLINIC
103 WASHBURN PLAZA
LOPEZ ISLAND, WA 98261
Phone 360-468-2245
Manager: CRYSTAL ROVENTE
LOPEZ ISLAND MEDICAL CLINIC, 103 WASHBURN PL
LOPEZ ISLAND, WA 98261
Phone 360-468-2245

Additional Remarks

FOR CD CTC SEATTLE ARTCC AT 253-351-3694.

Instrument Procedures

There are no published instrument procedures at 03WT.

Some nearby airports with instrument procedures:

KFHR - Friday Harbor Airport (4 nm W)
KORS - Orcas Island Airport (11 nm N)
KNUW - Whidbey Island Naval Air Station (Ault Field) (15 nm SE)
KOKH - AJ Eisenberg Airport (19 nm SE)
KBVS - Skagit Regional Airport (20 nm E)
 
Loc | Ops | Rwys | IFR | FBO | Links
Com | Nav | Svcs | Stats | Notes
Aerial photo
No photo
 
Airport distance calculator
Flying to Lopez Medical Clinic Heliport? Find the distance to fly.

From to 03WT

Sunrise and sunset
Times for 17-Apr-2021
 Local
(UTC-7)
 Zulu
(UTC)
Morning civil twilight05:4512:45
Sunrise06:1813:18
Sunset20:0403:04
Evening civil twilight20:3803:38

Current date and time
Zulu (UTC)  17-Apr-2021 15:36:01
Local (UTC-7)  17-Apr-2021 08:36:01
 
METAR
KFHR 
5nm W 
171453Z AUTO 01006KT 10SM CLR 12/06 A3025 RMK AO2 SLP243 T01220056 53008 TSNO
KORS 
11nm N 
171515Z AUTO VRB04KT 10SM CLR 13/06 A3024 RMK AO2
CWZO 
13nm W 
171500Z AUTO 02010KT RMK AO1
KNUW 
15nm SE 
171456Z 00000KT 10SM CLR 11/06 A3028 RMK AO2 SLP251 T01060061 53008 $
CWEZ 
15nm N 
171500Z AUTO 32002KT 13/06 RMK AO1 SLP239 T01250061 52008
CWYJ 
15nm W 
171500Z AUTO 02006KT 14/04 RMK AO1 SLP242 T01400037 53009
CWLM 
17nm W 
171500Z AUTO 03006KT 13/04 RMK AO1 SLP240 T01330038 53008
CYWH 
17nm W 
171500Z 01002KT 15SM SKC 14/04 A3024 RMK SLP242
TAF
KNUW 
15nm SE 
1707/1807 VRB06KT 9999 SKC QNH3020INS FM172100 27008KT 9999 SKC QNH3019INS FM180500 VRB06KT 9999 SKC QNH3018INS T05/1713Z T17/1722Z FS30020
CYWH 
17nm W 
171412Z 1714/1802 VRB03KT P6SM SKC BECMG 1716/1718 05008KT FM172300 09005KT P6SM SCT050 SCT100 BKN200 BECMG 1800/1802 VRB03KT RMK NXT FCST BY 172100Z
NOTAMs
Click for the latest NOTAMs
NOTAMs are issued by the DoD/FAA and will open in a separate window not controlled by AirNav.

 

 
 

Would you like to see your business listed on this page?

 If your business provides an interesting product or service to pilots, flight crews, aircraft, or users of the Lopez Medical Clinic Heliport, you should consider listing it here.  To start the listing process, click on the button below
 
Add a business
 

Other Pages about Lopez Medical Clinic Heliport

Update a link
 
Copyright © AirNav, LLC. All rights reserved. Privacy Policy  Contact